Time;durP1;ratioP1;P1;durP2;ratioP2;P2;SDS_P1;SDS_P2;PMS_P1;PMS_P2;Temp;Humidity;BMP_temperature;BMP_pressure;BME280_temperature;BME280_humidity;BME280_pressure;Samples;Min_cycle;Max_cycle;Signal;HPM_P1;HPM_P2
2023/06/14 00:00:34;;;;;;;;;;;;;;;23.16;38.62;101113.75;7344902;19;20763;-57
2023/06/14 00:03:00;;;;;;;;;;;;;;;23.12;38.09;101114.94;7346885;19;19932;-57
2023/06/14 00:05:26;;;;;;;;;;;;;;;23.07;38.47;101118.88;7350806;19;20431;-57
2023/06/14 00:07:53;;;;;;;;;;;;;;;23.03;38.65;101131.56;7352565;19;19935;-57
2023/06/14 00:10:18;;;;;;;;;;;;;;;22.97;38.77;101119.50;7353473;19;20466;-57
2023/06/14 00:12:44;;;;;;;;;;;;;;;22.92;38.33;101126.97;7348550;19;19973;-57
2023/06/14 00:15:09;;;;;;;;;;;;;;;22.86;38.48;101121.13;7351994;19;19951;-57
2023/06/14 00:17:36;;;;;;;;;;;;;;;22.80;38.87;101125.91;7352655;19;19947;-57
2023/06/14 00:20:03;;;;;;;;;;;;;;;22.76;38.91;101126.25;7353213;19;20330;-57
2023/06/14 00:22:28;;;;;;;;;;;;;;;22.70;38.84;101121.31;7351475;19;19927;-57
2023/06/14 00:24:53;;;;;;;;;;;;;;;22.65;39.04;101118.09;7351270;19;19943;-57
2023/06/14 00:27:19;;;;;;;;;;;;;;;22.59;38.94;101118.53;7354656;19;19922;-57
2023/06/14 00:29:44;;;;;;;;;;;;;;;22.52;38.88;101118.94;7355506;19;19915;-57
2023/06/14 00:32:09;;;;;;;;;;;;;;;22.47;39.15;101114.88;7344571;19;20959;-57
2023/06/14 00:34:35;;;;;;;;;;;;;;;22.16;38.61;101078.78;7355074;19;19922;-57
2023/06/14 00:37:00;;;;;;;;;;;;;;;22.37;38.88;101127.06;7353467;19;19972;-57
2023/06/14 00:39:25;;;;;;;;;;;;;;;22.31;39.32;101120.34;7352221;19;20409;-57
2023/06/14 00:41:51;;;;;;;;;;;;;;;22.25;39.23;101120.72;7347389;19;19951;-57
2023/06/14 00:44:17;;;;;;;;;;;;;;;22.21;39.71;101119.25;7355209;19;19950;-57
2023/06/14 00:46:42;;;;;;;;;;;;;;;22.17;39.26;101123.03;7349980;19;20730;-57
2023/06/14 00:49:08;;;;;;;;;;;;;;;22.13;39.35;101126.84;7353899;19;19951;-57
2023/06/14 00:51:33;;;;;;;;;;;;;;;22.09;39.45;101120.84;7346736;19;19926;-57
2023/06/14 00:53:59;;;;;;;;;;;;;;;22.05;39.87;101118.47;7350090;19;19951;-57
2023/06/14 00:56:24;;;;;;;;;;;;;;;22.02;39.98;101120.38;7353102;19;20566;-57
2023/06/14 00:58:50;;;;;;;;;;;;;;;21.63;39.99;101065.28;7354775;19;20784;-57
2023/06/14 01:01:16;;;;;;;;;;;;;;;21.94;39.94;101120.00;7319450;19;20276;-57
2023/06/14 01:03:41;;;;;;;;;;;;;;;21.90;39.80;101120.31;7353178;19;19926;-57
2023/06/14 01:06:35;;;;;;;;;;;;;;;21.87;40.29;101124.00;7349802;19;19930;-57
2023/06/14 01:09:24;;;;;;;;;;;;;;;21.83;40.11;101118.97;7244263;19;2004339;-57
2023/06/14 01:12:04;;;;;;;;;;;;;;;21.80;40.28;101124.50;7351285;19;20577;-57
2023/06/14 01:14:31;;;;;;;;;;;;;;;21.74;40.54;101121.25;7346714;19;20343;-57
2023/06/14 01:16:57;;;;;;;;;;;;;;;21.66;40.73;101112.94;7349428;19;20029;-58
2023/06/14 01:19:25;;;;;;;;;;;;;;;21.67;40.25;101125.25;7348639;19;19923;-57
2023/06/14 01:21:51;;;;;;;;;;;;;;;21.65;40.84;101126.31;7348149;19;19927;-57
2023/06/14 01:24:19;;;;;;;;;;;;;;;21.61;40.75;101135.44;7351760;19;19922;-57
2023/06/14 01:26:46;;;;;;;;;;;;;;;21.59;40.90;101134.66;7349800;19;20481;-57
2023/06/14 01:29:17;;;;;;;;;;;;;;;21.55;40.59;101135.81;7351631;19;19938;-56
2023/06/14 01:31:42;;;;;;;;;;;;;;;21.54;40.88;101134.09;7348265;19;19934;-57
2023/06/14 01:34:08;;;;;;;;;;;;;;;21.52;41.13;101130.69;7335399;19;21969;-57
2023/06/14 01:36:36;;;;;;;;;;;;;;;21.51;41.23;101135.16;7353396;19;20238;-57
2023/06/14 01:39:01;;;;;;;;;;;;;;;21.50;41.15;101138.75;7352643;19;19922;-57
2023/06/14 01:41:28;;;;;;;;;;;;;;;21.50;41.26;101138.75;7351188;19;19915;-57
2023/06/14 01:43:54;;;;;;;;;;;;;;;21.49;40.98;101132.59;7352807;19;20026;-57
2023/06/14 01:46:20;;;;;;;;;;;;;;;21.49;41.48;101137.91;7349588;19;20269;-57
2023/06/14 01:48:45;;;;;;;;;;;;;;;21.50;41.51;101139.59;7349205;19;19962;-57
2023/06/14 01:51:10;;;;;;;;;;;;;;;21.52;41.31;101136.00;7351439;19;20012;-57
2023/06/14 01:53:36;;;;;;;;;;;;;;;21.52;41.24;101134.19;7351208;19;19999;-58
2023/06/14 01:56:01;;;;;;;;;;;;;;;21.53;41.14;101133.22;7350662;19;20254;-57
2023/06/14 01:58:26;;;;;;;;;;;;;;;21.54;41.13;101139.41;7342122;19;19918;-57
2023/06/14 02:00:55;;;;;;;;;;;;;;;21.54;41.39;101129.63;7354614;19;19919;-57
2023/06/14 02:03:20;;;;;;;;;;;;;;;21.55;41.85;101133.16;7353744;19;20028;-57
2023/06/14 02:05:45;;;;;;;;;;;;;;;21.56;41.58;101134.88;7350975;19;19990;-57
2023/06/14 02:08:10;;;;;;;;;;;;;;;21.56;41.85;101126.88;7355733;19;19923;-57
2023/06/14 02:10:36;;;;;;;;;;;;;;;21.57;41.89;101136.56;7354819;19;19932;-57
2023/06/14 02:13:01;;;;;;;;;;;;;;;21.56;41.58;101135.72;7354674;19;19950;-57
2023/06/14 02:15:33;;;;;;;;;;;;;;;21.56;41.66;101132.22;7351888;19;19927;-57
2023/06/14 02:17:58;;;;;;;;;;;;;;;21.58;42.08;101136.47;7353457;19;19911;-57
2023/06/14 02:20:24;;;;;;;;;;;;;;;21.60;41.49;101136.38;7353719;19;19923;-57
2023/06/14 02:22:49;;;;;;;;;;;;;;;21.56;41.78;101138.38;7350662;19;20601;-57
2023/06/14 02:25:15;;;;;;;;;;;;;;;21.55;42.06;101135.81;7355514;19;20993;-57
2023/06/14 02:27:40;;;;;;;;;;;;;;;21.55;41.71;101135.81;7347371;19;19922;-58
2023/06/14 02:30:06;;;;;;;;;;;;;;;21.54;42.04;101134.09;7349754;19;19915;-57
2023/06/14 02:32:31;;;;;;;;;;;;;;;21.53;42.20;101138.56;7355774;19;19927;-57
2023/06/14 02:34:57;;;;;;;;;;;;;;;21.52;42.20;101138.66;7353590;19;19918;-57
2023/06/14 02:37:22;;;;;;;;;;;;;;;21.50;41.96;101134.28;7355479;19;19931;-57
2023/06/14 02:39:48;;;;;;;;;;;;;;;21.49;42.13;101137.91;7351805;19;19960;-57
2023/06/14 02:42:13;;;;;;;;;;;;;;;21.47;42.39;101139.78;7355186;19;20002;-57
2023/06/14 02:44:38;;;;;;;;;;;;;;;21.46;42.36;101138.09;7353906;19;19947;-57
2023/06/14 02:47:04;;;;;;;;;;;;;;;21.44;41.85;101140.00;7355151;19;20873;-57
2023/06/14 02:49:30;;;;;;;;;;;;;;;21.43;42.36;101142.72;7352439;19;19915;-57
2023/06/14 02:51:55;;;;;;;;;;;;;;;21.41;42.56;101145.47;7349566;19;19919;-57
2023/06/14 02:54:21;;;;;;;;;;;;;;;21.39;42.17;101147.38;7352751;19;19943;-57
2023/06/14 02:56:46;;;;;;;;;;;;;;;21.38;42.54;101145.66;7353723;19;19926;-56
2023/06/14 02:59:13;;;;;;;;;;;;;;;21.36;42.29;101147.56;7350070;19;19922;-57
2023/06/14 03:01:38;;;;;;;;;;;;;;;21.34;42.37;101138.84;7353331;19;20496;-57
2023/06/14 03:04:04;;;;;;;;;;;;;;;21.33;42.61;101145.06;7347302;19;19911;-57
2023/06/14 03:06:30;;;;;;;;;;;;;;;21.32;42.69;101146.03;7354289;19;19919;-57
2023/06/14 03:09:00;;;;;;;;;;;;;;;21.30;42.93;101145.28;7352594;19;19923;-57
2023/06/14 03:11:28;;;;;;;;;;;;;;;21.29;42.78;101148.84;7353005;19;19923;-57
2023/06/14 03:13:53;;;;;;;;;;;;;;;21.27;42.83;101148.06;7351728;19;20049;-57
2023/06/14 03:16:19;;;;;;;;;;;;;;;21.24;43.30;101149.13;7351020;19;20533;-57
2023/06/14 03:18:44;;;;;;;;;;;;;;;21.22;43.13;101151.00;7328720;19;19923;-57
2023/06/14 03:21:10;;;;;;;;;;;;;;;21.21;42.89;101156.41;7347927;19;19911;-57
2023/06/14 03:23:36;;;;;;;;;;;;;;;21.17;42.85;101147.78;7354451;19;19933;-57
2023/06/14 03:26:01;;;;;;;;;;;;;;;21.16;42.88;101155.84;7346575;19;19990;-57
2023/06/14 03:28:26;;;;;;;;;;;;;;;21.13;43.04;101150.69;7354722;19;20328;-57
2023/06/14 03:30:52;;;;;;;;;;;;;;;21.10;43.24;101156.22;7352191;19;20002;-57
2023/06/14 03:33:17;;;;;;;;;;;;;;;21.06;43.16;101150.22;7344983;19;20696;-57
2023/06/14 03:35:43;;;;;;;;;;;;;;;21.02;43.10;101156.66;7354679;19;19923;-57
2023/06/14 03:38:08;;;;;;;;;;;;;;;20.98;43.38;101153.34;7352950;19;19919;-57
2023/06/14 03:40:33;;;;;;;;;;;;;;;20.94;43.16;101151.81;7358457;19;19998;-57
2023/06/14 03:42:59;;;;;;;;;;;;;;;20.90;43.05;101160.88;7355342;19;19929;-57
2023/06/14 03:45:24;;;;;;;;;;;;;;;20.86;43.48;101150.53;7358441;19;19935;-57
2023/06/14 03:47:50;;;;;;;;;;;;;;;20.82;43.28;101151.66;7359374;19;19925;-57
2023/06/14 03:50:15;;;;;;;;;;;;;;;20.76;43.22;101158.19;7357321;19;19923;-57
2023/06/14 03:52:43;;;;;;;;;;;;;;;20.71;43.25;101161.09;7359738;19;19947;-57
2023/06/14 03:55:08;;;;;;;;;;;;;;;20.67;43.47;101164.00;7351267;19;19934;-57
2023/06/14 03:57:33;;;;;;;;;;;;;;;20.63;43.85;101162.47;7360172;19;19948;-57
2023/06/14 03:59:59;;;;;;;;;;;;;;;20.57;43.74;101165.47;7352958;19;19932;-57
2023/06/14 04:02:24;;;;;;;;;;;;;;;20.44;43.52;101152.03;7358576;19;20526;-57
2023/06/14 04:04:51;;;;;;;;;;;;;;;20.49;43.66;101170.38;7354712;19;19950;-57
2023/06/14 04:07:19;;;;;;;;;;;;;;;20.45;43.72;101173.16;7359604;19;19964;-57
2023/06/14 04:09:45;;;;;;;;;;;;;;;20.41;43.60;101174.28;7354792;19;19930;-57
2023/06/14 04:12:11;;;;;;;;;;;;;;;20.07;44.07;101111.69;7355083;19;20038;-57
2023/06/14 04:14:36;;;;;;;;;;;;;;;20.34;43.00;101172.91;7359331;19;19951;-57
2023/06/14 04:17:02;;;;;;;;;;;;;;;20.29;43.29;101169.66;7356258;19;20439;-57
2023/06/14 04:19:27;;;;;;;;;;;;;;;20.27;43.58;101171.53;7357208;19;20555;-57
2023/06/14 04:21:52;;;;;;;;;;;;;;;20.20;43.79;101176.34;7355436;19;19919;-57
2023/06/14 04:24:17;;;;;;;;;;;;;;;20.17;43.69;101176.53;7351433;19;19932;-57
2023/06/14 04:26:47;;;;;;;;;;;;;;;20.15;43.95;101174.88;7354590;19;19978;-57
2023/06/14 04:29:16;;;;;;;;;;;;;;;20.12;43.72;101178.56;7357832;19;19922;-57
2023/06/14 04:31:45;;;;;;;;;;;;;;;20.11;43.74;101175.97;7353544;19;19939;-57
2023/06/14 04:34:15;;;;;;;;;;;;;;;20.08;44.09;101179.69;7351731;19;20597;-56
2023/06/14 04:36:49;;;;;;;;;;;;;;;20.08;43.82;101192.94;7359394;19;19967;-55
2023/06/14 04:39:20;;;;;;;;;;;;;;;20.07;43.93;101190.34;7355774;19;19947;-57
2023/06/14 04:41:46;;;;;;;;;;;;;;;20.05;44.29;101187.78;7355999;19;19926;-57
2023/06/14 04:44:12;;;;;;;;;;;;;;;20.04;44.47;101196.69;7354078;19;19919;-57
2023/06/14 04:46:45;;;;;;;;;;;;;;;20.03;44.38;101191.47;7354309;19;19943;-57
2023/06/14 04:49:14;;;;;;;;;;;;;;;20.01;44.49;101193.31;7354581;19;19930;-57
2023/06/14 04:51:39;;;;;;;;;;;;;;;20.01;44.56;101201.28;7348468;19;19915;-58
2023/06/14 04:54:05;;;;;;;;;;;;;;;20.01;44.53;101193.31;7358657;19;19928;-57
2023/06/14 04:56:30;;;;;;;;;;;;;;;19.96;44.61;101199.72;7350934;19;20291;-57
2023/06/14 04:58:56;;;;;;;;;;;;;;;19.98;44.90;101201.47;7354177;19;19915;-57
2023/06/14 05:01:23;;;;;;;;;;;;;;;19.96;44.41;101198.88;7351071;19;19939;-57
2023/06/14 05:03:49;;;;;;;;;;;;;;;19.94;44.84;101198.97;7354228;19;20466;-57
2023/06/14 05:06:14;;;;;;;;;;;;;;;19.92;44.86;101198.22;7350471;19;19944;-57
2023/06/14 05:08:40;;;;;;;;;;;;;;;19.94;44.53;101201.63;7352724;19;20921;-57
2023/06/14 05:11:05;;;;;;;;;;;;;;;19.93;44.49;101205.22;7355219;19;19925;-57
2023/06/14 05:13:32;;;;;;;;;;;;;;;19.93;44.54;101202.56;7356492;19;19921;-57
2023/06/14 05:15:58;;;;;;;;;;;;;;;19.92;44.92;101197.31;7355231;19;21152;-57
2023/06/14 05:18:25;;;;;;;;;;;;;;;19.92;44.77;101203.50;7356929;19;19948;-57
2023/06/14 05:20:50;;;;;;;;;;;;;;;19.93;44.81;101193.75;7352205;19;19974;-57
2023/06/14 05:23:15;;;;;;;;;;;;;;;19.92;44.70;101206.16;7353966;19;19918;-57
2023/06/14 05:25:44;;;;;;;;;;;;;;;19.93;45.07;101209.66;7352725;19;20424;-57
2023/06/14 05:28:09;;;;;;;;;;;;;;;19.92;44.93;101208.81;7356293;19;19986;-57
2023/06/14 05:30:34;;;;;;;;;;;;;;;19.93;45.12;101210.53;7349204;19;20013;-57
2023/06/14 05:33:00;;;;;;;;;;;;;;;19.93;45.04;101215.81;7355873;19;19974;-57
2023/06/14 05:35:26;;;;;;;;;;;;;;;19.95;44.90;101219.22;7355191;19;19927;-57
2023/06/14 05:37:52;;;;;;;;;;;;;;;19.96;44.89;101212.97;7352840;19;19938;-57
2023/06/14 05:40:17;;;;;;;;;;;;;;;19.98;44.71;101214.72;7354941;19;19926;-58
2023/06/14 05:42:42;;;;;;;;;;;;;;;20.00;45.07;101234.03;7356052;19;19922;-57
2023/06/14 05:45:08;;;;;;;;;;;;;;;20.00;45.07;101226.94;7353234;19;20447;-57
2023/06/14 05:47:33;;;;;;;;;;;;;;;20.02;44.65;101227.72;7354578;19;19931;-57
2023/06/14 05:49:58;;;;;;;;;;;;;;;20.04;45.02;101233.78;7352670;19;19972;-57
2023/06/14 05:52:24;;;;;;;;;;;;;;;20.06;44.85;101236.34;7357050;19;20014;-57
2023/06/14 05:54:49;;;;;;;;;;;;;;;20.07;44.62;101233.66;7353864;19;19919;-58
2023/06/14 05:57:14;;;;;;;;;;;;;;;20.10;44.69;101238.75;7354497;19;19923;-57
2023/06/14 05:59:40;;;;;;;;;;;;;;;20.12;44.53;101241.31;7350990;19;19943;-57
2023/06/14 06:02:05;;;;;;;;;;;;;;;20.14;44.78;101244.78;7356216;19;20694;-57
2023/06/14 06:04:30;;;;;;;;;;;;;;;20.16;44.75;101237.56;7354455;19;20167;-56
2023/06/14 06:06:56;;;;;;;;;;;;;;;20.19;44.64;101238.28;7355371;19;19930;-57
2023/06/14 06:09:21;;;;;;;;;;;;;;;20.21;44.55;101235.53;7349181;19;20402;-57
2023/06/14 06:11:46;;;;;;;;;;;;;;;20.24;44.20;101240.69;7354712;19;19923;-57
2023/06/14 06:14:11;;;;;;;;;;;;;;;20.28;44.13;101247.53;7353033;19;20291;-57
2023/06/14 06:16:37;;;;;;;;;;;;;;;20.30;44.15;101243.00;7356092;19;19931;-57
2023/06/14 06:19:02;;;;;;;;;;;;;;;20.33;44.48;101245.50;7349745;19;19922;-57
2023/06/14 06:21:27;;;;;;;;;;;;;;;20.35;44.13;101243.59;7354027;19;19919;-57
2023/06/14 06:23:54;;;;;;;;;;;;;;;20.37;44.12;101247.00;7350897;19;19998;-57
2023/06/14 06:26:20;;;;;;;;;;;;;;;20.40;44.18;101249.50;7352418;19;19911;-57
2023/06/14 06:28:45;;;;;;;;;;;;;;;20.42;44.14;101247.59;7355076;19;19915;-58
2023/06/14 06:31:11;;;;;;;;;;;;;;;20.45;44.45;101244.81;7349776;19;19978;-57
2023/06/14 06:33:36;;;;;;;;;;;;;;;20.49;44.34;101249.97;7354853;19;20339;-57
2023/06/14 06:36:02;;;;;;;;;;;;;;;20.51;44.18;101248.09;7352441;19;19918;-57
2023/06/14 06:38:27;;;;;;;;;;;;;;;20.55;43.97;101249.63;7352380;19;19930;-57
2023/06/14 06:40:54;;;;;;;;;;;;;;;20.58;44.35;101249.44;7354099;19;19933;-57
2023/06/14 06:43:19;;;;;;;;;;;;;;;20.62;44.19;101245.69;7352035;19;19998;-57
2023/06/14 06:45:44;;;;;;;;;;;;;;;20.66;43.98;101252.53;7354019;19;20036;-57
2023/06/14 06:48:10;;;;;;;;;;;;;;;20.69;43.84;101247.94;7348470;19;19923;-57
2023/06/14 06:50:35;;;;;;;;;;;;;;;20.74;43.37;101252.97;7345892;19;19933;-57
2023/06/14 06:53:01;;;;;;;;;;;;;;;20.78;43.28;101257.16;7350879;19;19937;-58
2023/06/14 06:55:26;;;;;;;;;;;;;;;20.82;43.36;101256.03;7345455;19;20260;-57
2023/06/14 06:57:53;;;;;;;;;;;;;;;20.86;43.04;101254.91;7349185;19;19926;-57
2023/06/14 07:00:19;;;;;;;;;;;;;;;20.90;42.89;101259.13;7351133;19;19933;-58
2023/06/14 07:02:44;;;;;;;;;;;;;;;20.95;43.11;101254.41;7352266;19;20523;-58
2023/06/14 07:05:09;;;;;;;;;;;;;;;21.00;42.81;101259.44;7323741;19;19934;-57
2023/06/14 07:07:35;;;;;;;;;;;;;;;21.04;42.99;101262.81;7345645;19;19974;-57
2023/06/14 07:10:03;;;;;;;;;;;;;;;21.09;43.16;101266.91;7348259;19;19938;-55
2023/06/14 07:12:29;;;;;;;;;;;;;;;21.13;42.72;101263.09;7352261;19;20681;-57
2023/06/14 07:14:55;;;;;;;;;;;;;;;21.19;42.64;101272.53;7352218;19;20355;-57
2023/06/14 07:17:20;;;;;;;;;;;;;;;21.23;42.90;101274.91;7351707;19;19934;-57
2023/06/14 07:19:45;;;;;;;;;;;;;;;21.28;42.97;101279.94;7354240;19;20002;-57
2023/06/14 07:22:11;;;;;;;;;;;;;;;21.33;42.47;101280.56;7347115;19;19938;-57
2023/06/14 07:24:36;;;;;;;;;;;;;;;21.38;42.81;101281.16;7350840;19;19931;-57
2023/06/14 07:27:04;;;;;;;;;;;;;;;21.42;42.65;101285.34;7347699;19;19923;-58
2023/06/14 07:29:29;;;;;;;;;;;;;;;21.46;42.48;101286.88;7351704;19;19972;-57
2023/06/14 07:31:54;;;;;;;;;;;;;;;21.50;42.69;101293.72;7349871;19;19919;-57
2023/06/14 07:34:20;;;;;;;;;;;;;;;21.55;42.58;101296.13;7352225;19;19944;-57
2023/06/14 07:36:46;;;;;;;;;;;;;;;21.61;42.68;101294.91;7342943;19;19923;-57
2023/06/14 07:39:11;;;;;;;;;;;;;;;21.66;42.67;101298.13;7349085;19;19922;-57
2023/06/14 07:41:36;;;;;;;;;;;;;;;21.70;42.55;101295.22;7349942;19;19930;-57
2023/06/14 07:44:02;;;;;;;;;;;;;;;21.74;42.89;101290.53;7351236;19;19919;-57
2023/06/14 07:46:27;;;;;;;;;;;;;;;21.78;42.69;101300.06;7345096;19;19915;-57
2023/06/14 07:48:52;;;;;;;;;;;;;;;21.75;42.89;101290.47;7350187;19;19918;-57
2023/06/14 07:51:18;;;;;;;;;;;;;;;21.87;42.87;101306.63;7330473;19;19926;-57
2023/06/14 07:53:43;;;;;;;;;;;;;;;21.92;42.83;101307.22;7348113;19;19964;-57
2023/06/14 07:56:08;;;;;;;;;;;;;;;21.95;42.78;101310.53;7344664;19;20551;-57
2023/06/14 07:58:33;;;;;;;;;;;;;;;21.98;42.82;101310.34;7347237;19;19923;-58
2023/06/14 08:01:01;;;;;;;;;;;;;;;22.03;42.71;101318.91;7347186;19;19923;-57
2023/06/14 08:03:26;;;;;;;;;;;;;;;22.07;42.17;101319.56;7350254;19;19915;-57
2023/06/14 08:05:51;;;;;;;;;;;;;;;22.10;42.69;101318.50;7348974;19;20336;-57
2023/06/14 08:08:17;;;;;;;;;;;;;;;22.15;42.40;101321.78;7352684;19;19911;-57
2023/06/14 08:10:42;;;;;;;;;;;;;;;22.16;42.29;101319.06;7348582;19;19926;-57
2023/06/14 08:13:09;;;;;;;;;;;;;;;22.20;42.08;101319.69;7352393;19;19918;-58
2023/06/14 08:15:34;;;;;;;;;;;;;;;22.23;42.05;101325.69;7351140;19;19920;-57
2023/06/14 08:18:01;;;;;;;;;;;;;;;22.27;41.94;101331.69;7351497;19;19926;-57
2023/06/14 08:20:26;;;;;;;;;;;;;;;22.30;42.31;101331.47;7345845;19;20617;-57
2023/06/14 08:22:55;;;;;;;;;;;;;;;22.33;41.97;101341.94;7350643;19;19922;-58
2023/06/14 08:25:20;;;;;;;;;;;;;;;22.36;42.12;101339.09;7351892;19;20011;-57
2023/06/14 08:27:45;;;;;;;;;;;;;;;22.40;41.74;101348.59;7356713;19;20002;-57
2023/06/14 08:30:11;;;;;;;;;;;;;;;22.44;41.99;101350.13;7355682;19;20330;-58
2023/06/14 08:32:36;;;;;;;;;;;;;;;22.48;41.59;101353.44;7359040;19;19911;-58
2023/06/14 08:35:02;;;;;;;;;;;;;;;22.51;41.55;101350.59;7355095;19;19971;-57
2023/06/14 08:37:27;;;;;;;;;;;;;;;22.53;41.54;101365.53;7359349;19;19927;-58
2023/06/14 08:39:53;;;;;;;;;;;;;;;22.58;41.24;101362.56;7355025;19;19919;-58
2023/06/14 08:42:18;;;;;;;;;;;;;;;22.61;41.07;101367.72;7358263;19;20010;-58
2023/06/14 08:44:44;;;;;;;;;;;;;;;22.63;41.32;101370.28;7353785;19;19930;-57
2023/06/14 08:47:10;;;;;;;;;;;;;;;22.65;41.05;101368.34;7356864;19;19921;-57
2023/06/14 08:49:37;;;;;;;;;;;;;;;22.66;41.01;101367.44;7355168;19;19919;-58
2023/06/14 08:52:05;;;;;;;;;;;;;;;22.67;40.48;101377.13;7354349;19;19963;-57
2023/06/14 08:54:32;;;;;;;;;;;;;;;22.68;40.77;101374.34;7356228;19;20786;-58
2023/06/14 08:56:57;;;;;;;;;;;;;;;22.69;40.38;101367.22;7352204;19;19947;-57
2023/06/14 08:59:26;;;;;;;;;;;;;;;22.70;40.23;101374.25;7353136;19;19934;-58
2023/06/14 09:01:52;;;;;;;;;;;;;;;22.72;40.45;101377.69;7353756;19;20719;-57
2023/06/14 09:04:19;;;;;;;;;;;;;;;22.74;40.31;101373.09;7357923;19;19923;-57
2023/06/14 09:06:45;;;;;;;;;;;;;;;22.75;40.41;101372.16;7354022;19;19931;-57
2023/06/14 09:09:11;;;;;;;;;;;;;;;22.76;40.32;101372.06;7352177;19;19929;-58
2023/06/14 09:11:36;;;;;;;;;;;;;;;22.79;40.46;101371.00;7358056;19;19926;-57
2023/06/14 09:14:01;;;;;;;;;;;;;;;22.82;39.86;101364.66;7353052;19;20263;-57
2023/06/14 09:16:27;;;;;;;;;;;;;;;22.86;40.10;101366.16;7357135;19;19926;-58
2023/06/14 09:18:53;;;;;;;;;;;;;;;22.91;40.28;101364.97;7354915;19;19922;-58
2023/06/14 09:21:18;;;;;;;;;;;;;;;22.94;40.03;101359.41;7354914;19;19936;-58
2023/06/14 09:23:45;;;;;;;;;;;;;;;22.97;39.73;101363.72;7353137;19;19922;-57
2023/06/14 09:26:20;;;;;;;;;;;;;;;23.00;39.76;101367.00;7356022;19;19927;-57
2023/06/14 09:28:46;;;;;;;;;;;;;;;23.04;39.84;101359.69;7348514;19;20707;-58
2023/06/14 09:31:13;;;;;;;;;;;;;;;23.11;39.73;101365.47;7357938;19;19935;-57
2023/06/14 09:33:38;;;;;;;;;;;;;;;23.23;40.23;101370.00;7356038;19;19933;-58
2023/06/14 09:36:04;;;;;;;;;;;;;;;23.40;40.10;101371.56;7350798;19;20927;-58
2023/06/14 09:38:30;;;;;;;;;;;;;;;23.60;40.00;101373.75;7356193;19;19919;-57
2023/06/14 09:40:58;;;;;;;;;;;;;;;23.82;40.15;101378.53;7355657;19;19918;-57
2023/06/14 09:43:26;;;;;;;;;;;;;;;24.06;39.97;101382.22;7357809;19;19958;-58
2023/06/14 09:45:51;;;;;;;;;;;;;;;24.08;39.73;101337.63;7354532;19;19927;-58
2023/06/14 09:48:17;;;;;;;;;;;;;;;24.57;39.66;101371.56;7354320;19;19915;-58
2023/06/14 09:50:45;;;;;;;;;;;;;;;24.87;39.98;101372.16;7350192;19;20473;-57
2023/06/14 09:53:11;;;;;;;;;;;;;;;24.84;39.52;101335.84;7354295;19;19922;-58
2023/06/14 09:55:37;;;;;;;;;;;;;;;25.37;39.22;101371.16;7334182;19;20763;-57
2023/06/14 09:58:05;;;;;;;;;;;;;;;25.65;39.64;101377.09;7342725;19;19925;-58
2023/06/14 10:00:33;;;;;;;;;;;;;;;25.92;39.83;101372.38;7350559;19;20466;-57
2023/06/14 10:03:01;;;;;;;;;;;;;;;26.20;39.06;101375.59;7356054;19;19923;-58
2023/06/14 10:05:28;;;;;;;;;;;;;;;26.44;39.13;101373.69;7351346;19;19941;-57
2023/06/14 10:07:59;;;;;;;;;;;;;;;26.51;38.31;101348.16;7356509;19;19922;-58
2023/06/14 10:10:25;;;;;;;;;;;;;;;26.93;38.89;101369.78;7346150;19;19923;-58
2023/06/14 10:12:51;;;;;;;;;;;;;;;27.20;39.48;101365.84;7353938;19;19914;-58
2023/06/14 10:15:42;;;;;;;;;;;;;;;27.42;37.71;101372.00;7353925;19;20895;-58
2023/06/14 10:18:18;;;;;;;;;;;;;;;27.68;37.66;101379.72;7250936;19;2004429;-58
2023/06/14 10:21:01;;;;;;;;;;;;;;;27.96;38.08;101380.91;7348377;19;20246;-58
2023/06/14 10:23:28;;;;;;;;;;;;;;;28.28;37.39;101375.44;7352010;19;20497;-57
2023/06/14 10:25:57;;;;;;;;;;;;;;;28.58;38.08;101382.69;7351339;19;20259;-58
2023/06/14 10:28:24;;;;;;;;;;;;;;;28.93;38.73;101370.66;7353254;19;19923;-58
2023/06/14 10:31:08;;;;;;;;;;;;;;;29.24;37.78;101373.28;7354040;19;20324;-58
2023/06/14 10:33:34;;;;;;;;;;;;;;;29.57;36.89;101369.41;7353940;19;19923;-58
2023/06/14 10:36:10;;;;;;;;;;;;;;;29.87;37.01;101365.69;7354459;19;19935;-57
2023/06/14 10:38:36;;;;;;;;;;;;;;;30.20;37.58;101359.81;7352579;19;20336;-58
2023/06/14 10:41:01;;;;;;;;;;;;;;;30.50;37.26;101380.28;7351396;19;21165;-58
2023/06/14 10:43:27;;;;;;;;;;;;;;;30.82;37.44;101376.34;7354407;19;19953;-58
2023/06/14 10:46:16;;;;;;;;;;;;;;;31.09;36.13;101380.88;7355198;19;19934;-58
2023/06/14 10:48:42;;;;;;;;;;;;;;;31.39;36.10;101370.75;7246113;19;2004307;-58
2023/06/14 10:51:27;;;;;;;;;;;;;;;31.63;35.44;101373.69;7352229;19;19923;-58
2023/06/14 10:53:56;;;;;;;;;;;;;;;31.95;34.99;101369.56;7352117;19;19936;-58
2023/06/14 10:56:28;;;;;;;;;;;;;;;32.26;35.23;101378.88;7351052;19;19922;-58
2023/06/14 10:58:56;;;;;;;;;;;;;;;32.58;35.04;101382.78;7345432;19;19958;-58
2023/06/14 11:01:26;;;;;;;;;;;;;;;32.89;35.27;101379.53;7352980;19;19945;-58
2023/06/14 11:03:55;;;;;;;;;;;;;;;33.20;34.88;101374.41;7352414;19;20603;-58
2023/06/14 11:06:23;;;;;;;;;;;;;;;33.54;35.94;101371.59;7353183;19;20597;-58
2023/06/14 11:08:48;;;;;;;;;;;;;;;33.80;33.92;101372.25;7353791;19;19915;-59
2023/06/14 11:11:13;;;;;;;;;;;;;;;34.05;34.32;101370.41;7354223;19;19951;-58
2023/06/14 11:13:45;;;;;;;;;;;;;;;34.32;33.63;101371.88;7354991;19;19938;-58
2023/06/14 11:16:11;;;;;;;;;;;;;;;34.63;33.38;101368.41;7354149;19;20316;-58
2023/06/14 11:18:37;;;;;;;;;;;;;;;34.96;33.26;101369.13;7353039;19;19939;-58
2023/06/14 11:21:02;;;;;;;;;;;;;;;35.26;33.31;101369.28;7354812;19;19930;-59
2023/06/14 11:23:27;;;;;;;;;;;;;;;35.57;32.62;101370.06;7348681;19;19934;-58
2023/06/14 11:25:53;;;;;;;;;;;;;;;35.81;32.19;101374.47;7354773;19;19927;-58
2023/06/14 11:28:22;;;;;;;;;;;;;;;36.16;31.37;101377.56;7347243;19;19918;-58
2023/06/14 11:30:48;;;;;;;;;;;;;;;36.49;33.17;101379.91;7352821;19;19938;-58
2023/06/14 11:33:17;;;;;;;;;;;;;;;36.77;31.46;101370.03;7352981;19;19926;-58
2023/06/14 11:35:43;;;;;;;;;;;;;;;37.08;31.18;101366.22;7352061;19;19927;-58
2023/06/14 11:38:10;;;;;;;;;;;;;;;37.40;31.36;101370.34;7351812;19;19919;-58
2023/06/14 11:40:37;;;;;;;;;;;;;;;37.69;31.87;101358.47;7353801;19;20527;-58
2023/06/14 11:43:02;;;;;;;;;;;;;;;37.97;30.68;101365.81;7350831;19;19946;-58
2023/06/14 11:45:29;;;;;;;;;;;;;;;38.23;30.53;101366.00;7352767;19;20005;-58
2023/06/14 11:47:56;;;;;;;;;;;;;;;38.49;30.63;101365.34;7352794;19;19918;-59
2023/06/14 11:50:21;;;;;;;;;;;;;;;38.76;29.96;101360.84;7351820;19;19919;-59
2023/06/14 11:52:52;;;;;;;;;;;;;;;39.05;29.91;101354.22;7350788;19;20136;-58
2023/06/14 11:55:17;;;;;;;;;;;;;;;39.28;28.98;101358.50;7352048;19;19926;-58
2023/06/14 11:57:42;;;;;;;;;;;;;;;39.49;29.88;101357.44;7352125;19;19923;-58
2023/06/14 12:00:12;;;;;;;;;;;;;;;39.65;28.80;101354.34;7357009;19;20065;-58
2023/06/14 12:02:37;;;;;;;;;;;;;;;39.82;29.73;101354.75;7356077;19;19925;-58
2023/06/14 12:05:09;;;;;;;;;;;;;;;39.97;28.95;101357.25;7357099;19;19910;-58
2023/06/14 12:07:41;;;;;;;;;;;;;;;40.08;28.16;101360.22;7358436;19;19939;-58
2023/06/14 12:10:08;;;;;;;;;;;;;;;40.25;28.18;101363.34;7358136;19;19936;-58
2023/06/14 12:12:38;;;;;;;;;;;;;;;40.38;28.34;101363.28;7355711;19;19973;-59
2023/06/14 12:15:05;;;;;;;;;;;;;;;40.52;27.83;101361.38;7359962;19;19957;-58
2023/06/14 12:17:35;;;;;;;;;;;;;;;40.66;27.34;101362.16;7352412;19;20876;-58
2023/06/14 12:20:06;;;;;;;;;;;;;;;40.82;26.90;101369.03;7358638;19;19918;-59
2023/06/14 12:22:31;;;;;;;;;;;;;;;41.03;26.82;101374.22;7355548;19;19918;-58
2023/06/14 12:24:57;;;;;;;;;;;;;;;41.00;27.26;101327.22;7356922;19;20700;-58
2023/06/14 12:27:23;;;;;;;;;;;;;;;41.33;26.88;101368.13;7357953;19;19919;-62
2023/06/14 12:29:58;;;;;;;;;;;;;;;41.41;25.67;101360.47;7358709;19;19915;-58
2023/06/14 12:32:23;;;;;;;;;;;;;;;41.55;25.54;101354.91;7357645;19;19907;-58